Vicki B — WD12776 — position and weather

sailwx.info

Track history (hours):
 
Tides and Currents Weather Stations Pressure Air Temp Water Temp Dewpoint Dewpoint Depression Visibility Wind Speed Wind Dir Waves Ship Positions

Vicki B

Last reported at 2017-Dec-16 04:59 UTC. Time now 2017-Dec-16 05:12 UTC.
Position N 45°39' W 122°44'.

Type: Towing. MMSI: 367681630.

Date/timePositionNaut miles runAvg speedWind from/ knotsBaromVisibWave heightAir tempDewpointWater temp
2017-Dec-16 04:59N 45°39' W 122°44'0 0.0
2017-Dec-16 04:30N 45°39' W 122°44'0 0.0
2017-Dec-16 04:00N 45°39' W 122°44'0 0.0
2017-Dec-16 03:30N 45°39' W 122°44'0 0.0
2017-Dec-16 03:00N 45°39' W 122°44'1 1.8
2017-Dec-16 02:30N 45°39' W 122°45'2 4.7
2017-Dec-16 02:00N 45°41' W 122°46'2 4.7
2017-Dec-16 01:30N 45°43' W 122°46'2 4.7
2017-Dec-16 01:00N 45°46' W 122°46'2 4.8
2017-Dec-16 00:30N 45°48' W 122°47'2 4.8
2017-Dec-16 00:00N 45°50' W 122°47'1 1.3
2017-Dec-15 23:30N 45°51' W 122°48'2 4.5
2017-Dec-15 22:58N 45°48' W 122°49'1 0.7
2017-Dec-15 21:20N 45°48' W 122°51'0 0.0
2017-Dec-15 21:00N 45°48' W 122°51'0 0.0
2017-Dec-15 20:16N 45°48' W 122°51'0 0.0
2017-Dec-15 20:00N 45°48' W 122°51'0 0.0
2017-Dec-15 19:21N 45°48' W 122°51'0 0.0
2017-Dec-15 19:00N 45°48' W 122°51'0 0.0
2017-Dec-15 18:30N 45°48' W 122°51'1 1.9
2017-Dec-15 18:00N 45°48' W 122°50'3 5.6
2017-Dec-15 17:30N 45°51' W 122°48'2 4.1
2017-Dec-15 17:00N 45°49' W 122°48'4 8.6
2017-Dec-15 16:31N 45°45' W 122°46'4 8.6
2017-Dec-15 16:00N 45°40' W 122°46'4 7.1
2017-Dec-15 15:30N 45°37' W 122°47'4 7.3
2017-Dec-15 15:00N 45°34' W 122°44'0 0.4
2017-Dec-15 14:31N 45°34' W 122°44'0 0.0
2017-Dec-15 14:01N 45°34' W 122°44'0 0.0
2017-Dec-15 13:31N 45°34' W 122°44'0 0.0
2017-Dec-15 13:00N 45°34' W 122°44'0 0.0
2017-Dec-15 12:30N 45°34' W 122°44'0 0.0
2017-Dec-15 12:00N 45°34' W 122°44'0 0.0
2017-Dec-15 11:30N 45°34' W 122°44'0 0.0
2017-Dec-15 11:00N 45°34' W 122°44'0 0.8
2017-Dec-15 10:30N 45°34' W 122°44'4 5.4
2017-Dec-15 09:52N 45°37' W 122°47'2 4.3
2017-Dec-15 09:20N 45°39' W 122°49'2 4.6
2017-Dec-15 09:01N 45°40' W 122°51'2 4.1
2017-Dec-15 08:31N 45°42' W 122°52'2 4.1
2017-Dec-15 08:00N 45°44' W 122°52'2 3.6
2017-Dec-15 07:30N 45°45' W 122°50'2 3.2
2017-Dec-15 07:00N 45°46' W 122°49'2 3.3
2017-Dec-15 06:28N 45°48' W 122°48'1 2.8
2017-Dec-15 06:01N 45°48' W 122°50'1 0.6
2017-Dec-15 05:05N 45°48' W 122°51'0 0.0
2017-Dec-15 05:00N 45°48' W 122°51'0 0.0
2017-Dec-15 04:30N 45°48' W 122°51'0 0.0
2017-Dec-15 04:00N 45°48' W 122°51'0 0.0
2017-Dec-15 02:30N 45°48' W 122°51'0 0.0
2017-Dec-15 01:00N 45°48' W 122°51'0 0.0
2017-Dec-15 00:30N 45°48' W 122°51'16 2.7
2017-Dec-14 18:31N 45°33' W 122°41'0 0.0
2017-Dec-14 18:00N 45°33' W 122°41'0 0.0
2017-Dec-14 17:31N 45°33' W 122°41'0 0.0
2017-Dec-14 17:00N 45°33' W 122°41'0 0.0
2017-Dec-14 16:30N 45°33' W 122°41'2 3.4
2017-Dec-14 16:00N 45°34' W 122°43'4 3.9
2017-Dec-14 15:00N 45°36' W 122°47'2 4.4
2017-Dec-14 14:30N 45°38' W 122°49'2 4.2
2017-Dec-14 14:00N 45°40' W 122°51'2 3.9
2017-Dec-14 13:30N 45°42' W 122°52'2 4.0
2017-Dec-14 13:00N 45°44' W 122°52'2 3.6
2017-Dec-14 12:30N 45°45' W 122°50'2 3.5
2017-Dec-14 12:00N 45°46' W 122°49'2 3.5
2017-Dec-14 11:31N 45°48' W 122°49'1 3.0
2017-Dec-14 11:00N 45°48' W 122°51'0 0.0
2017-Dec-14 10:30N 45°48' W 122°51'0 0.0
2017-Dec-14 10:00N 45°48' W 122°51'0 0.0
2017-Dec-14 09:25N 45°48' W 122°51'0 0.0
2017-Dec-14 09:00N 45°48' W 122°51'0 0.0
2017-Dec-14 08:30N 45°48' W 122°51'0 0.0
2017-Dec-14 08:00N 45°48' W 122°51'0 0.1
2017-Dec-14 07:30N 45°48' W 122°51'2 3.5
2017-Dec-14 07:01N 45°49' W 122°50'3 5.7
2017-Dec-14 06:30N 45°52' W 122°47'4 8.0
2017-Dec-14 06:00N 45°48' W 122°47'4 8.2
2017-Dec-14 05:30N 45°44' W 122°46'4 8.3
2017-Dec-14 05:00N 45°39' W 122°46'3 6.4
2017-Dec-14 04:31N 45°36' W 122°47'4 7.2
2017-Dec-14 04:00N 45°34' W 122°44'0 0.9
2017-Dec-14 03:30N 45°33' W 122°43'1 2.6
2017-Dec-14 03:00N 45°33' W 122°41'0 0.0
2017-Dec-14 02:30N 45°33' W 122°41'0 0.0
2017-Dec-14 02:01N 45°33' W 122°41'0 0.0
2017-Dec-14 01:30N 45°33' W 122°41'0 0.0
2017-Dec-14 01:00N 45°33' W 122°41'0 0.0
2017-Dec-14 00:30N 45°33' W 122°41'0 0.0
2017-Dec-14 00:00N 45°33' W 122°41'2 3.2
2017-Dec-13 23:30N 45°34' W 122°43'2 3.6
2017-Dec-13 23:00N 45°35' W 122°45'3 5.0
2017-Dec-13 22:30N 45°37' W 122°47'2 4.6
2017-Dec-13 22:00N 45°39' W 122°49'2 4.9
2017-Dec-13 21:30N 45°40' W 122°52'2 4.8
2017-Dec-13 21:00N 45°43' W 122°52'2 4.7
2017-Dec-13 20:30N 45°45' W 122°50'2 4.4
2017-Dec-13 20:00N 45°47' W 122°49'2 3.5
2017-Dec-13 19:31N 45°48' W 122°50'1 2.1
2017-Dec-13 19:00N 45°48' W 122°51'0 0.0
2017-Dec-13 18:30N 45°48' W 122°51'0 0.0
2017-Dec-13 18:00N 45°48' W 122°51'0 0.0
2017-Dec-13 17:30N 45°48' W 122°51'0 0.0
2017-Dec-13 17:00N 45°48' W 122°51'0 0.1
2017-Dec-13 16:30N 45°48' W 122°51'0 0.0
2017-Dec-13 16:00N 45°48' W 122°51'0 0.0
2017-Dec-13 15:30N 45°48' W 122°51'0 0.0
2017-Dec-13 15:00N 45°48' W 122°51'0 0.0
2017-Dec-13 14:30N 45°48' W 122°51'0 0.0
2017-Dec-13 14:00N 45°48' W 122°51'0 0.0
2017-Dec-13 13:30N 45°48' W 122°51'0 0.0
2017-Dec-13 13:00N 45°48' W 122°51'0 0.0
2017-Dec-13 12:30N 45°48' W 122°51'0 0.0
2017-Dec-13 12:00N 45°48' W 122°51'0 0.1
2017-Dec-13 11:30N 45°48' W 122°51'0 0.1
2017-Dec-13 11:00N 45°48' W 122°51'1 1.3
2017-Dec-13 10:31N 45°48' W 122°50'2 4.8
2017-Dec-13 10:00N 45°50' W 122°48'1 1.6
2017-Dec-13 09:31N 45°50' W 122°47'4 7.2
2017-Dec-13 09:00N 45°47' W 122°46'4 7.2
2017-Dec-13 08:30N 45°43' W 122°46'4 7.1
2017-Dec-13 07:58N 45°39' W 122°45'3 7.5
2017-Dec-13 07:30N 45°38' W 122°41'4 8.1
2017-Dec-13 07:01N 45°36' W 122°36'4 8.4
2017-Dec-13 06:30N 45°35' W 122°30'3 5.1
2017-Dec-13 06:00N 45°34' W 122°27'0 0.0
2017-Dec-13 05:30N 45°34' W 122°27'0 0.0
2017-Dec-13 05:00N 45°34' W 122°27'0 0.0
2017-Dec-13 04:30N 45°34' W 122°27'0 0.0
2017-Dec-13 04:01N 45°34' W 122°27'0 0.0
2017-Dec-13 03:30N 45°34' W 122°27'0 0.0
2017-Dec-13 03:00N 45°34' W 122°27'0 0.0
2017-Dec-13 02:30N 45°34' W 122°27'1 1.3
2017-Dec-13 02:01N 45°34' W 122°27'1 2.6
2017-Dec-13 01:31N 45°35' W 122°29'0 1.0
2017-Dec-13 01:01N 45°35' W 122°30'1 2.1
2017-Dec-13 00:30N 45°35' W 122°31'1 2.5
2017-Dec-13 00:01N 45°36' W 122°33'1 1.9
2017-Dec-12 23:31N 45°36' W 122°34'1 2.0
2017-Dec-12 23:01N 45°36' W 122°36'1 2.0
2017-Dec-12 22:31N 45°36' W 122°37'1 2.2
2017-Dec-12 22:00N 45°37' W 122°38'2 4.1
2017-Dec-12 21:31N 45°37' W 122°41'2 4.3
2017-Dec-12 21:01N 45°39' W 122°44'2 4.6
2017-Dec-12 20:30N 45°40' W 122°46'2 4.8
2017-Dec-12 20:01N 45°43' W 122°46'3 5.0
2017-Dec-12 19:30N 45°45' W 122°46'3 5.0
2017-Dec-12 18:58N 45°48' W 122°47'2 4.8
2017-Dec-12 18:31N 45°50' W 122°47'1 2.8
2017-Dec-12 18:00N 45°51' W 122°48'2 4.6
2017-Dec-12 17:30N 45°49' W 122°49'1 2.9
2017-Dec-12 17:00N 45°48' W 122°50'0 0.8
2017-Dec-12 16:30N 45°48' W 122°51'0 0.0
2017-Dec-12 16:01N 45°48' W 122°51'0 0.0
2017-Dec-12 15:30N 45°48' W 122°51'0 0.0
2017-Dec-12 15:00N 45°48' W 122°51'0 0.0
2017-Dec-12 14:30N 45°48' W 122°51'0 0.0
2017-Dec-12 14:00N 45°48' W 122°51'0 0.0
2017-Dec-12 13:30N 45°48' W 122°51'0 0.0
2017-Dec-12 13:00N 45°48' W 122°51'0 0.0
2017-Dec-12 12:30N 45°48' W 122°51'2 4.7
2017-Dec-12 12:00N 45°50' W 122°49'2 3.2
2017-Dec-12 11:30N 45°51' W 122°47'4 8.2
2017-Dec-12 11:00N 45°47' W 122°46'4 8.2
2017-Dec-12 10:30N 45°43' W 122°46'4 7.7
2017-Dec-12 10:00N 45°39' W 122°45'1 1.7
2017-Dec-12 09:30N 45°39' W 122°44'0 0.0
2017-Dec-12 09:01N 45°39' W 122°44'0 0.0
2017-Dec-12 08:31N 45°39' W 122°44'0 0.0
2017-Dec-12 08:01N 45°39' W 122°44'0 0.0
2017-Dec-12 07:31N 45°39' W 122°44'0 0.0
2017-Dec-12 07:01N 45°39' W 122°44'0 0.0
2017-Dec-12 06:31N 45°39' W 122°44'0 0.0
2017-Dec-12 06:00N 45°39' W 122°44'0 0.0
2017-Dec-12 05:30N 45°39' W 122°44'0 0.0
2017-Dec-12 05:01N 45°39' W 122°44'0 0.0
2017-Dec-12 04:30N 45°39' W 122°44'0 0.0
2017-Dec-12 04:01N 45°39' W 122°44'2 3.2
2017-Dec-12 03:30N 45°39' W 122°46'2 4.2
2017-Dec-12 03:00N 45°42' W 122°46'2 4.2
2017-Dec-12 02:28N 45°44' W 122°46'2 4.2
2017-Dec-12 02:01N 45°46' W 122°46'2 4.1
2017-Dec-12 01:30N 45°48' W 122°47'2 3.8
2017-Dec-12 01:01N 45°49' W 122°48'2 4.0
2017-Dec-12 00:30N 45°51' W 122°47'3 5.2
2017-Dec-12 00:00N 45°49' W 122°49'1 2.9
2017-Dec-11 23:31N 45°48' W 122°50'1 1.3
2017-Dec-11 23:00N 45°48' W 122°51'0 0.0
2017-Dec-11 22:30N 45°48' W 122°51'0 0.1
2017-Dec-11 22:00N 45°48' W 122°51'0 0.0
2017-Dec-11 21:30N 45°48' W 122°51'0 0.0
2017-Dec-11 21:01N 45°48' W 122°51'0 0.0
2017-Dec-11 20:30N 45°48' W 122°51'0 0.0
2017-Dec-11 20:00N 45°48' W 122°51'0 0.0
2017-Dec-11 19:30N 45°48' W 122°51'0 0.0
2017-Dec-11 19:00N 45°48' W 122°51'0 0.0
2017-Dec-11 18:29N 45°48' W 122°51'0 0.0
2017-Dec-11 18:01N 45°48' W 122°51'0 0.1
2017-Dec-11 17:30N 45°48' W 122°51'0 0.1
2017-Dec-11 17:00N 45°48' W 122°51'0 0.1
2017-Dec-11 16:31N 45°48' W 122°51'0 0.0
2017-Dec-09 22:50N 45°48' W 122°51'0 0.1
2017-Dec-09 22:30N 45°48' W 122°51'2 3.9
2017-Dec-09 22:00N 45°49' W 122°49'3 5.3
2017-Dec-09 21:31N 45°51' W 122°47'4 8.5
2017-Dec-09 21:01N 45°47' W 122°47'4 8.4
2017-Dec-09 20:30N 45°43' W 122°46'4 8.1
2017-Dec-09 20:00N 45°39' W 122°45'1 2.3
2017-Dec-09 19:31N 45°39' W 122°44'0 0.0
2017-Dec-09 19:00N 45°39' W 122°44'0 0.0
2017-Dec-09 18:30N 45°39' W 122°44'0 0.0
2017-Dec-09 18:00N 45°39' W 122°44'0 0.0
2017-Dec-09 17:30N 45°39' W 122°44'0 0.0
2017-Dec-09 17:00N 45°39' W 122°44'0 0.0
2017-Dec-09 16:30N 45°39' W 122°44'0 0.0
2017-Dec-09 16:00N 45°39' W 122°44'0 0.0
2017-Dec-09 15:30N 45°39' W 122°44'2 3.1
2017-Dec-09 15:00N 45°39' W 122°46'2 4.2
2017-Dec-09 14:25N 45°42' W 122°46'2 4.2
2017-Dec-09 13:59N 45°44' W 122°46'2 4.1
2017-Dec-09 13:30N 45°46' W 122°46'2 4.1
2017-Dec-09 13:00N 45°47' W 122°47'2 3.8
2017-Dec-09 12:30N 45°49' W 122°48'2 3.8
2017-Dec-09 12:00N 45°51' W 122°47'2 3.7
2017-Dec-09 11:30N 45°50' W 122°49'2 3.7
2017-Dec-09 11:00N 45°48' W 122°50'1 1.4
2017-Dec-09 10:30N 45°48' W 122°51'0 0.0
2017-Dec-09 10:00N 45°48' W 122°51'0 0.0
2017-Dec-09 09:30N 45°48' W 122°51'0 0.0
2017-Dec-09 09:00N 45°48' W 122°51'0 0.0
2017-Dec-09 08:30N 45°48' W 122°51'0 0.0
2017-Dec-09 08:00N 45°48' W 122°51'0 0.0
2017-Dec-09 07:31N 45°48' W 122°51'1 1.7
2017-Dec-09 07:01N 45°48' W 122°50'3 3.1
2017-Dec-09 06:09N 45°50' W 122°47'1 7.8
2017-Dec-09 06:00N 45°49' W 122°48'4 8.2
2017-Dec-09 05:30N 45°45' W 122°46'4 8.1
2017-Dec-09 05:00N 45°41' W 122°46'3 6.3
2017-Dec-09 04:30N 45°39' W 122°44'2 5.0
2017-Dec-09 04:01N 45°38' W 122°47'4 7.8
2017-Dec-09 03:30N 45°35' W 122°45'1 1.6
2017-Dec-09 03:01N 45°34' W 122°44'0 0.0
2017-Dec-09 02:30N 45°34' W 122°44'0 0.0
2017-Dec-09 02:01N 45°34' W 122°44'0 0.0
2017-Dec-09 01:31N 45°34' W 122°44'0 0.0
2017-Dec-09 01:01N 45°34' W 122°44'0 0.0
2017-Dec-09 00:30N 45°34' W 122°44'3 5.9
2017-Dec-09 00:00N 45°36' W 122°47'3 6.4
2017-Dec-08 23:31N 45°39' W 122°45'0 0.9
2017-Dec-08 23:00N 45°39' W 122°45'2 4.3
2017-Dec-08 22:31N 45°41' W 122°46'2 4.3
2017-Dec-08 22:00N 45°43' W 122°46'2 3.4
2017-Dec-08 21:31N 45°44' W 122°46'2 4.3
2017-Dec-08 21:01N 45°47' W 122°46'2 4.2
2017-Dec-08 20:30N 45°48' W 122°47'2 4.1
2017-Dec-08 20:00N 45°51' W 122°47'1 1.2
2017-Dec-08 19:30N 45°51' W 122°48'2 4.8
2017-Dec-08 19:00N 45°48' W 122°49'1 2.4
2017-Dec-08 18:30N 45°48' W 122°51'0 0.1
2017-Dec-08 18:00N 45°48' W 122°51'0 0.1
2017-Dec-08 17:30N 45°48' W 122°51'0 0.0
2017-Dec-08 17:00N 45°48' W 122°51'0 0.0
2017-Dec-08 16:30N 45°48' W 122°51'0 0.0
2017-Dec-08 16:00N 45°48' W 122°51'0 0.0
2017-Dec-08 15:30N 45°48' W 122°51'0 0.0
2017-Dec-08 15:00N 45°48' W 122°51'0 0.0
2017-Dec-08 14:30N 45°48' W 122°51'0 0.0
2017-Dec-08 14:00N 45°48' W 122°51'0 0.0
2017-Dec-08 13:30N 45°48' W 122°51'0 0.3
2017-Dec-08 13:00N 45°48' W 122°50'2 4.8
2017-Dec-08 12:30N 45°50' W 122°49'1 2.8
2017-Dec-08 12:00N 45°51' W 122°47'4 8.2
2017-Dec-08 11:30N 45°47' W 122°46'4 7.9
2017-Dec-08 11:00N 45°43' W 122°46'4 8.0
2017-Dec-08 10:30N 45°39' W 122°45'4 8.5
2017-Dec-08 10:01N 45°37' W 122°39'5 8.9
2017-Dec-08 09:30N 45°36' W 122°33'4 7.4
2017-Dec-08 09:00N 45°34' W 122°28'1 2.4
2017-Dec-08 08:30N 45°34' W 122°27'0 0.0
2017-Dec-08 07:59N 45°34' W 122°27'0 0.0
2017-Dec-08 07:30N 45°34' W 122°27'0 0.0
2017-Dec-08 07:00N 45°34' W 122°27'0 0.0
2017-Dec-08 06:30N 45°34' W 122°27'0 0.0
2017-Dec-08 06:00N 45°34' W 122°27'0 0.0
2017-Dec-08 05:30N 45°34' W 122°27'0 0.0
2017-Dec-08 05:00N 45°34' W 122°27'0 0.0
2017-Dec-08 04:29N 45°34' W 122°27'0 0.0
2017-Dec-08 04:00N 45°34' W 122°27'0 0.0
2017-Dec-08 03:30N 45°34' W 122°27'0 0.3
2017-Dec-08 03:00N 45°34' W 122°27'1 2.5
2017-Dec-08 02:30N 45°35' W 122°28'1 2.4
2017-Dec-08 02:00N 45°35' W 122°30'0 0.6
2017-Dec-08 01:30N 45°35' W 122°30'2 3.1
2017-Dec-08 01:00N 45°36' W 122°32'2 3.1
2017-Dec-08 00:30N 45°36' W 122°34'2 3.2
2017-Dec-08 00:01N 45°36' W 122°37'2 3.3
2017-Dec-07 23:30N 45°37' W 122°39'2 3.3
2017-Dec-07 23:00N 45°37' W 122°41'2 3.8
2017-Dec-07 22:30N 45°38' W 122°43'2 3.9
2017-Dec-07 22:00N 45°40' W 122°46'2 3.8
2017-Dec-07 21:30N 45°41' W 122°46'2 3.8
2017-Dec-07 21:00N 45°43' W 122°46'2 3.9
2017-Dec-07 20:30N 45°45' W 122°46'2 3.9
2017-Dec-07 20:00N 45°47' W 122°47'2 3.7
2017-Dec-07 19:30N 45°49' W 122°48'2 3.8
2017-Dec-07 19:00N 45°51' W 122°47'1 1.5
2017-Dec-07 18:30N 45°50' W 122°48'2 5.0
2017-Dec-07 18:00N 45°48' W 122°50'1 1.9
2017-Dec-07 17:30N 45°48' W 122°51'0 0.0
2017-Dec-07 17:00N 45°48' W 122°51'0 0.0
2017-Dec-07 16:30N 45°48' W 122°51'0 0.1
2017-Dec-07 16:01N 45°48' W 122°51'0 0.0
2017-Dec-07 15:31N 45°48' W 122°51'0 0.0
2017-Dec-07 15:00N 45°48' W 122°51'0 0.0
2017-Dec-07 14:30N 45°48' W 122°51'0 0.0
2017-Dec-07 14:00N 45°48' W 122°51'0 0.0
2017-Dec-07 13:30N 45°48' W 122°51'0 0.0
2017-Dec-07 13:00N 45°48' W 122°51'0 0.0
2017-Dec-07 12:31N 45°48' W 122°51'0 0.0
2017-Dec-07 12:00N 45°48' W 122°51'0 0.0
2017-Dec-07 11:30N 45°48' W 122°51'0 0.0
2017-Dec-07 11:01N 45°48' W 122°51'0 0.0
2017-Dec-07 10:31N 45°48' W 122°51'0 0.0
2017-Dec-07 10:01N 45°48' W 122°51'0 0.0
2017-Dec-07 09:30N 45°48' W 122°51'0 0.0
2017-Dec-07 09:00N 45°48' W 122°51'0 0.0
2017-Dec-07 08:31N 45°48' W 122°51'0 0.0
2017-Dec-07 08:01N 45°48' W 122°51'0 0.0
2017-Dec-07 07:30N 45°48' W 122°51'0 0.1
2017-Dec-07 07:00N 45°48' W 122°51'2 3.5
2017-Dec-07 06:30N 45°49' W 122°50'3 5.7
2017-Dec-07 06:01N 45°52' W 122°48'4 8.0
2017-Dec-07 05:30N 45°48' W 122°47'4 8.2
2017-Dec-07 05:00N 45°44' W 122°46'4 8.9
2017-Dec-07 04:30N 45°39' W 122°45'1 2.7
2017-Dec-07 04:01N 45°39' W 122°44'0 0.0
2017-Dec-07 03:31N 45°39' W 122°44'0 0.0
2017-Dec-07 02:56N 45°39' W 122°44'0 0.0
2017-Dec-07 02:31N 45°39' W 122°44'0 0.0
2017-Dec-07 02:01N 45°39' W 122°44'0 0.0
2017-Dec-07 01:30N 45°39' W 122°44'0 0.0
2017-Dec-07 01:00N 45°39' W 122°44'0 0.0
2017-Dec-07 00:31N 45°39' W 122°44'0 0.0
2017-Dec-07 00:00N 45°39' W 122°44'0 0.6
2017-Dec-06 23:30N 45°39' W 122°44'2 4.2
2017-Dec-06 23:01N 45°40' W 122°46'2 4.4
2017-Dec-06 22:30N 45°42' W 122°46'2 4.2
2017-Dec-06 22:00N 45°44' W 122°46'2 4.2
2017-Dec-06 21:30N 45°47' W 122°46'2 4.2
2017-Dec-06 21:01N 45°48' W 122°48'  
Track history (hours):
 
Tides and Currents Weather Stations Pressure Air Temp Water Temp Dewpoint Dewpoint Depression Visibility Wind Speed Wind Dir Waves Ship Positions

Vicki B

Last reported at 2017-Dec-16 04:59 UTC. Time now 2017-Dec-16 05:12 UTC.
Position N 45°39' W 122°44'.

Type: Towing. MMSI: 367681630.

Date/timePositionNaut miles runAvg speedWind from/ knotsBaromVisibWave heightAir tempDewpointWater temp
2017-Dec-16 04:59N 45°39' W 122°44'0 0.0
2017-Dec-16 04:30N 45°39' W 122°44'0 0.0
2017-Dec-16 04:00N 45°39' W 122°44'0 0.0
2017-Dec-16 03:30N 45°39' W 122°44'0 0.0
2017-Dec-16 03:00N 45°39' W 122°44'1 1.8
2017-Dec-16 02:30N 45°39' W 122°45'2 4.7
2017-Dec-16 02:00N 45°41' W 122°46'2 4.7
2017-Dec-16 01:30N 45°43' W 122°46'2 4.7
2017-Dec-16 01:00N 45°46' W 122°46'2 4.8
2017-Dec-16 00:30N 45°48' W 122°47'2 4.8
2017-Dec-16 00:00N 45°50' W 122°47'1 1.3
2017-Dec-15 23:30N 45°51' W 122°48'2 4.5
2017-Dec-15 22:58N 45°48' W 122°49'1 0.7
2017-Dec-15 21:20N 45°48' W 122°51'0 0.0
2017-Dec-15 21:00N 45°48' W 122°51'0 0.0
2017-Dec-15 20:16N 45°48' W 122°51'0 0.0
2017-Dec-15 20:00N 45°48' W 122°51'0 0.0
2017-Dec-15 19:21N 45°48' W 122°51'0 0.0
2017-Dec-15 19:00N 45°48' W 122°51'0 0.0
2017-Dec-15 18:30N 45°48' W 122°51'1 1.9
2017-Dec-15 18:00N 45°48' W 122°50'3 5.6
2017-Dec-15 17:30N 45°51' W 122°48'2 4.1
2017-Dec-15 17:00N 45°49' W 122°48'4 8.6
2017-Dec-15 16:31N 45°45' W 122°46'4 8.6
2017-Dec-15 16:00N 45°40' W 122°46'4 7.1
2017-Dec-15 15:30N 45°37' W 122°47'4 7.3
2017-Dec-15 15:00N 45°34' W 122°44'0 0.4
2017-Dec-15 14:31N 45°34' W 122°44'0 0.0
2017-Dec-15 14:01N 45°34' W 122°44'0 0.0
2017-Dec-15 13:31N 45°34' W 122°44'0 0.0
2017-Dec-15 13:00N 45°34' W 122°44'0 0.0
2017-Dec-15 12:30N 45°34' W 122°44'0 0.0
2017-Dec-15 12:00N 45°34' W 122°44'0 0.0
2017-Dec-15 11:30N 45°34' W 122°44'0 0.0
2017-Dec-15 11:00N 45°34' W 122°44'0 0.8
2017-Dec-15 10:30N 45°34' W 122°44'4 5.4
2017-Dec-15 09:52N 45°37' W 122°47'2 4.3
2017-Dec-15 09:20N 45°39' W 122°49'2 4.6
2017-Dec-15 09:01N 45°40' W 122°51'2 4.1
2017-Dec-15 08:31N 45°42' W 122°52'2 4.1
2017-Dec-15 08:00N 45°44' W 122°52'2 3.6
2017-Dec-15 07:30N 45°45' W 122°50'2 3.2
2017-Dec-15 07:00N 45°46' W 122°49'2 3.3
2017-Dec-15 06:28N 45°48' W 122°48'1 2.8
2017-Dec-15 06:01N 45°48' W 122°50'1 0.6
2017-Dec-15 05:05N 45°48' W 122°51'0 0.0
2017-Dec-15 05:00N 45°48' W 122°51'0 0.0
2017-Dec-15 04:30N 45°48' W 122°51'0 0.0
2017-Dec-15 04:00N 45°48' W 122°51'0 0.0
2017-Dec-15 02:30N 45°48' W 122°51'0 0.0
2017-Dec-15 01:00N 45°48' W 122°51'0 0.0
2017-Dec-15 00:30N 45°48' W 122°51'16 2.7
2017-Dec-14 18:31N 45°33' W 122°41'0 0.0
2017-Dec-14 18:00N 45°33' W 122°41'0 0.0
2017-Dec-14 17:31N 45°33' W 122°41'0 0.0
2017-Dec-14 17:00N 45°33' W 122°41'0 0.0
2017-Dec-14 16:30N 45°33' W 122°41'2 3.4
2017-Dec-14 16:00N 45°34' W 122°43'4 3.9
2017-Dec-14 15:00N 45°36' W 122°47'2 4.4
2017-Dec-14 14:30N 45°38' W 122°49'2 4.2
2017-Dec-14 14:00N 45°40' W 122°51'2 3.9
2017-Dec-14 13:30N 45°42' W 122°52'2 4.0
2017-Dec-14 13:00N 45°44' W 122°52'2 3.6
2017-Dec-14 12:30N 45°45' W 122°50'2 3.5
2017-Dec-14 12:00N 45°46' W 122°49'2 3.5
2017-Dec-14 11:31N 45°48' W 122°49'1 3.0
2017-Dec-14 11:00N 45°48' W 122°51'0 0.0
2017-Dec-14 10:30N 45°48' W 122°51'0 0.0
2017-Dec-14 10:00N 45°48' W 122°51'0 0.0
2017-Dec-14 09:25N 45°48' W 122°51'0 0.0
2017-Dec-14 09:00N 45°48' W 122°51'0 0.0
2017-Dec-14 08:30N 45°48' W 122°51'0 0.0
2017-Dec-14 08:00N 45°48' W 122°51'0 0.1
2017-Dec-14 07:30N 45°48' W 122°51'2 3.5
2017-Dec-14 07:01N 45°49' W 122°50'3 5.7
2017-Dec-14 06:30N 45°52' W 122°47'4 8.0
2017-Dec-14 06:00N 45°48' W 122°47'4 8.2
2017-Dec-14 05:30N 45°44' W 122°46'4 8.3
2017-Dec-14 05:00N 45°39' W 122°46'3 6.4
2017-Dec-14 04:31N 45°36' W 122°47'4 7.2
2017-Dec-14 04:00N 45°34' W 122°44'0 0.9
2017-Dec-14 03:30N 45°33' W 122°43'1 2.6
2017-Dec-14 03:00N 45°33' W 122°41'0 0.0
2017-Dec-14 02:30N 45°33' W 122°41'0 0.0
2017-Dec-14 02:01N 45°33' W 122°41'0 0.0
2017-Dec-14 01:30N 45°33' W 122°41'0 0.0
2017-Dec-14 01:00N 45°33' W 122°41'0 0.0
2017-Dec-14 00:30N 45°33' W 122°41'0 0.0
2017-Dec-14 00:00N 45°33' W 122°41'2 3.2
2017-Dec-13 23:30N 45°34' W 122°43'2 3.6
2017-Dec-13 23:00N 45°35' W 122°45'3 5.0
2017-Dec-13 22:30N 45°37' W 122°47'2 4.6
2017-Dec-13 22:00N 45°39' W 122°49'2 4.9
2017-Dec-13 21:30N 45°40' W 122°52'2 4.8
2017-Dec-13 21:00N 45°43' W 122°52'2 4.7
2017-Dec-13 20:30N 45°45' W 122°50'2 4.4
2017-Dec-13 20:00N 45°47' W 122°49'2 3.5
2017-Dec-13 19:31N 45°48' W 122°50'1 2.1
2017-Dec-13 19:00N 45°48' W 122°51'0 0.0
2017-Dec-13 18:30N 45°48' W 122°51'0 0.0
2017-Dec-13 18:00N 45°48' W 122°51'0 0.0
2017-Dec-13 17:30N 45°48' W 122°51'0 0.0
2017-Dec-13 17:00N 45°48' W 122°51'0 0.1
2017-Dec-13 16:30N 45°48' W 122°51'0 0.0
2017-Dec-13 16:00N 45°48' W 122°51'0 0.0
2017-Dec-13 15:30N 45°48' W 122°51'0 0.0
2017-Dec-13 15:00N 45°48' W 122°51'0 0.0
2017-Dec-13 14:30N 45°48' W 122°51'0 0.0
2017-Dec-13 14:00N 45°48' W 122°51'0 0.0
2017-Dec-13 13:30N 45°48' W 122°51'0 0.0
2017-Dec-13 13:00N 45°48' W 122°51'0 0.0
2017-Dec-13 12:30N 45°48' W 122°51'0 0.0
2017-Dec-13 12:00N 45°48' W 122°51'0 0.1
2017-Dec-13 11:30N 45°48' W 122°51'0 0.1
2017-Dec-13 11:00N 45°48' W 122°51'1 1.3
2017-Dec-13 10:31N 45°48' W 122°50'2 4.8
2017-Dec-13 10:00N 45°50' W 122°48'1 1.6
2017-Dec-13 09:31N 45°50' W 122°47'4 7.2
2017-Dec-13 09:00N 45°47' W 122°46'4 7.2
2017-Dec-13 08:30N 45°43' W 122°46'4 7.1
2017-Dec-13 07:58N 45°39' W 122°45'3 7.5
2017-Dec-13 07:30N 45°38' W 122°41'4 8.1
2017-Dec-13 07:01N 45°36' W 122°36'4 8.4
2017-Dec-13 06:30N 45°35' W 122°30'3 5.1
2017-Dec-13 06:00N 45°34' W 122°27'0 0.0
2017-Dec-13 05:30N 45°34' W 122°27'0 0.0
2017-Dec-13 05:00N 45°34' W 122°27'0 0.0
2017-Dec-13 04:30N 45°34' W 122°27'0 0.0
2017-Dec-13 04:01N 45°34' W 122°27'0 0.0
2017-Dec-13 03:30N 45°34' W 122°27'0 0.0
2017-Dec-13 03:00N 45°34' W 122°27'0 0.0
2017-Dec-13 02:30N 45°34' W 122°27'1 1.3
2017-Dec-13 02:01N 45°34' W 122°27'1 2.6
2017-Dec-13 01:31N 45°35' W 122°29'0 1.0
2017-Dec-13 01:01N 45°35' W 122°30'1 2.1
2017-Dec-13 00:30N 45°35' W 122°31'1 2.5
2017-Dec-13 00:01N 45°36' W 122°33'1 1.9
2017-Dec-12 23:31N 45°36' W 122°34'1 2.0
2017-Dec-12 23:01N 45°36' W 122°36'1 2.0
2017-Dec-12 22:31N 45°36' W 122°37'1 2.2
2017-Dec-12 22:00N 45°37' W 122°38'2 4.1
2017-Dec-12 21:31N 45°37' W 122°41'2 4.3
2017-Dec-12 21:01N 45°39' W 122°44'2 4.6
2017-Dec-12 20:30N 45°40' W 122°46'2 4.8
2017-Dec-12 20:01N 45°43' W 122°46'3 5.0
2017-Dec-12 19:30N 45°45' W 122°46'3 5.0
2017-Dec-12 18:58N 45°48' W 122°47'2 4.8
2017-Dec-12 18:31N 45°50' W 122°47'1 2.8
2017-Dec-12 18:00N 45°51' W 122°48'2 4.6
2017-Dec-12 17:30N 45°49' W 122°49'1 2.9
2017-Dec-12 17:00N 45°48' W 122°50'0 0.8
2017-Dec-12 16:30N 45°48' W 122°51'0 0.0
2017-Dec-12 16:01N 45°48' W 122°51'0 0.0
2017-Dec-12 15:30N 45°48' W 122°51'0 0.0
2017-Dec-12 15:00N 45°48' W 122°51'0 0.0
2017-Dec-12 14:30N 45°48' W 122°51'0 0.0
2017-Dec-12 14:00N 45°48' W 122°51'0 0.0
2017-Dec-12 13:30N 45°48' W 122°51'0 0.0
2017-Dec-12 13:00N 45°48' W 122°51'0 0.0
2017-Dec-12 12:30N 45°48' W 122°51'2 4.7
2017-Dec-12 12:00N 45°50' W 122°49'2 3.2
2017-Dec-12 11:30N 45°51' W 122°47'4 8.2
2017-Dec-12 11:00N 45°47' W 122°46'4 8.2
2017-Dec-12 10:30N 45°43' W 122°46'4 7.7
2017-Dec-12 10:00N 45°39' W 122°45'1 1.7
2017-Dec-12 09:30N 45°39' W 122°44'0 0.0
2017-Dec-12 09:01N 45°39' W 122°44'0 0.0
2017-Dec-12 08:31N 45°39' W 122°44'0 0.0
2017-Dec-12 08:01N 45°39' W 122°44'0 0.0
2017-Dec-12 07:31N 45°39' W 122°44'0 0.0
2017-Dec-12 07:01N 45°39' W 122°44'0 0.0
2017-Dec-12 06:31N 45°39' W 122°44'0 0.0
2017-Dec-12 06:00N 45°39' W 122°44'0 0.0
2017-Dec-12 05:30N 45°39' W 122°44'0 0.0
2017-Dec-12 05:01N 45°39' W 122°44'0 0.0
2017-Dec-12 04:30N 45°39' W 122°44'0 0.0
2017-Dec-12 04:01N 45°39' W 122°44'2 3.2
2017-Dec-12 03:30N 45°39' W 122°46'2 4.2
2017-Dec-12 03:00N 45°42' W 122°46'2 4.2
2017-Dec-12 02:28N 45°44' W 122°46'2 4.2
2017-Dec-12 02:01N 45°46' W 122°46'2 4.1
2017-Dec-12 01:30N 45°48' W 122°47'2 3.8
2017-Dec-12 01:01N 45°49' W 122°48'2 4.0
2017-Dec-12 00:30N 45°51' W 122°47'3 5.2
2017-Dec-12 00:00N 45°49' W 122°49'1 2.9
2017-Dec-11 23:31N 45°48' W 122°50'1 1.3
2017-Dec-11 23:00N 45°48' W 122°51'0 0.0
2017-Dec-11 22:30N 45°48' W 122°51'0 0.1
2017-Dec-11 22:00N 45°48' W 122°51'0 0.0
2017-Dec-11 21:30N 45°48' W 122°51'0 0.0
2017-Dec-11 21:01N 45°48' W 122°51'0 0.0
2017-Dec-11 20:30N 45°48' W 122°51'0 0.0
2017-Dec-11 20:00N 45°48' W 122°51'0 0.0
2017-Dec-11 19:30N 45°48' W 122°51'0 0.0
2017-Dec-11 19:00N 45°48' W 122°51'0 0.0
2017-Dec-11 18:29N 45°48' W 122°51'0 0.0
2017-Dec-11 18:01N 45°48' W 122°51'0 0.1
2017-Dec-11 17:30N 45°48' W 122°51'0 0.1
2017-Dec-11 17:00N 45°48' W 122°51'0 0.1
2017-Dec-11 16:31N 45°48' W 122°51'0 0.0
2017-Dec-09 22:50N 45°48' W 122°51'0 0.1
2017-Dec-09 22:30N 45°48' W 122°51'2 3.9
2017-Dec-09 22:00N 45°49' W 122°49'3 5.3
2017-Dec-09 21:31N 45°51' W 122°47'4 8.5
2017-Dec-09 21:01N 45°47' W 122°47'4 8.4
2017-Dec-09 20:30N 45°43' W 122°46'4 8.1
2017-Dec-09 20:00N 45°39' W 122°45'1 2.3
2017-Dec-09 19:31N 45°39' W 122°44'0 0.0
2017-Dec-09 19:00N 45°39' W 122°44'0 0.0
2017-Dec-09 18:30N 45°39' W 122°44'0 0.0
2017-Dec-09 18:00N 45°39' W 122°44'0 0.0
2017-Dec-09 17:30N 45°39' W 122°44'0 0.0
2017-Dec-09 17:00N 45°39' W 122°44'0 0.0
2017-Dec-09 16:30N 45°39' W 122°44'0 0.0
2017-Dec-09 16:00N 45°39' W 122°44'0 0.0
2017-Dec-09 15:30N 45°39' W 122°44'2 3.1
2017-Dec-09 15:00N 45°39' W 122°46'2 4.2
2017-Dec-09 14:25N 45°42' W 122°46'2 4.2
2017-Dec-09 13:59N 45°44' W 122°46'2 4.1
2017-Dec-09 13:30N 45°46' W 122°46'2 4.1
2017-Dec-09 13:00N 45°47' W 122°47'2 3.8
2017-Dec-09 12:30N 45°49' W 122°48'2 3.8
2017-Dec-09 12:00N 45°51' W 122°47'2 3.7
2017-Dec-09 11:30N 45°50' W 122°49'2 3.7
2017-Dec-09 11:00N 45°48' W 122°50'1 1.4
2017-Dec-09 10:30N 45°48' W 122°51'0 0.0
2017-Dec-09 10:00N 45°48' W 122°51'0 0.0
2017-Dec-09 09:30N 45°48' W 122°51'0 0.0
2017-Dec-09 09:00N 45°48' W 122°51'0 0.0
2017-Dec-09 08:30N 45°48' W 122°51'0 0.0
2017-Dec-09 08:00N 45°48' W 122°51'0 0.0
2017-Dec-09 07:31N 45°48' W 122°51'1 1.7
2017-Dec-09 07:01N 45°48' W 122°50'3 3.1
2017-Dec-09 06:09N 45°50' W 122°47'1 7.8
2017-Dec-09 06:00N 45°49' W 122°48'4 8.2
2017-Dec-09 05:30N 45°45' W 122°46'4 8.1
2017-Dec-09 05:00N 45°41' W 122°46'3 6.3
2017-Dec-09 04:30N 45°39' W 122°44'2 5.0
2017-Dec-09 04:01N 45°38' W 122°47'4 7.8
2017-Dec-09 03:30N 45°35' W 122°45'1 1.6
2017-Dec-09 03:01N 45°34' W 122°44'0 0.0
2017-Dec-09 02:30N 45°34' W 122°44'0 0.0
2017-Dec-09 02:01N 45°34' W 122°44'0 0.0
2017-Dec-09 01:31N 45°34' W 122°44'0 0.0
2017-Dec-09 01:01N 45°34' W 122°44'0 0.0
2017-Dec-09 00:30N 45°34' W 122°44'3 5.9
2017-Dec-09 00:00N 45°36' W 122°47'3 6.4
2017-Dec-08 23:31N 45°39' W 122°45'0 0.9
2017-Dec-08 23:00N 45°39' W 122°45'2 4.3
2017-Dec-08 22:31N 45°41' W 122°46'2 4.3
2017-Dec-08 22:00N 45°43' W 122°46'2 3.4
2017-Dec-08 21:31N 45°44' W 122°46'2 4.3
2017-Dec-08 21:01N 45°47' W 122°46'2 4.2
2017-Dec-08 20:30N 45°48' W 122°47'2 4.1
2017-Dec-08 20:00N 45°51' W 122°47'1 1.2
2017-Dec-08 19:30N 45°51' W 122°48'2 4.8
2017-Dec-08 19:00N 45°48' W 122°49'1 2.4
2017-Dec-08 18:30N 45°48' W 122°51'0 0.1
2017-Dec-08 18:00N 45°48' W 122°51'0 0.1
2017-Dec-08 17:30N 45°48' W 122°51'0 0.0
2017-Dec-08 17:00N 45°48' W 122°51'0 0.0
2017-Dec-08 16:30N 45°48' W 122°51'0 0.0
2017-Dec-08 16:00N 45°48' W 122°51'0 0.0
2017-Dec-08 15:30N 45°48' W 122°51'0 0.0
2017-Dec-08 15:00N 45°48' W 122°51'0 0.0
2017-Dec-08 14:30N 45°48' W 122°51'0 0.0
2017-Dec-08 14:00N 45°48' W 122°51'0 0.0
2017-Dec-08 13:30N 45°48' W 122°51'0 0.3
2017-Dec-08 13:00N 45°48' W 122°50'2 4.8
2017-Dec-08 12:30N 45°50' W 122°49'1 2.8
2017-Dec-08 12:00N 45°51' W 122°47'4 8.2
2017-Dec-08 11:30N 45°47' W 122°46'4 7.9
2017-Dec-08 11:00N 45°43' W 122°46'4 8.0
2017-Dec-08 10:30N 45°39' W 122°45'4 8.5
2017-Dec-08 10:01N 45°37' W 122°39'5 8.9
2017-Dec-08 09:30N 45°36' W 122°33'4 7.4
2017-Dec-08 09:00N 45°34' W 122°28'1 2.4
2017-Dec-08 08:30N 45°34' W 122°27'0 0.0
2017-Dec-08 07:59N 45°34' W 122°27'0 0.0
2017-Dec-08 07:30N 45°34' W 122°27'0 0.0
2017-Dec-08 07:00N 45°34' W 122°27'0 0.0
2017-Dec-08 06:30N 45°34' W 122°27'0 0.0
2017-Dec-08 06:00N 45°34' W 122°27'0 0.0
2017-Dec-08 05:30N 45°34' W 122°27'0 0.0
2017-Dec-08 05:00N 45°34' W 122°27'0 0.0
2017-Dec-08 04:29N 45°34' W 122°27'0 0.0
2017-Dec-08 04:00N 45°34' W 122°27'0 0.0
2017-Dec-08 03:30N 45°34' W 122°27'0 0.3
2017-Dec-08 03:00N 45°34' W 122°27'1 2.5
2017-Dec-08 02:30N 45°35' W 122°28'1 2.4
2017-Dec-08 02:00N 45°35' W 122°30'0 0.6
2017-Dec-08 01:30N 45°35' W 122°30'2 3.1
2017-Dec-08 01:00N 45°36' W 122°32'2 3.1
2017-Dec-08 00:30N 45°36' W 122°34'2 3.2
2017-Dec-08 00:01N 45°36' W 122°37'2 3.3
2017-Dec-07 23:30N 45°37' W 122°39'2 3.3
2017-Dec-07 23:00N 45°37' W 122°41'2 3.8
2017-Dec-07 22:30N 45°38' W 122°43'2 3.9
2017-Dec-07 22:00N 45°40' W 122°46'2 3.8
2017-Dec-07 21:30N 45°41' W 122°46'2 3.8
2017-Dec-07 21:00N 45°43' W 122°46'2 3.9
2017-Dec-07 20:30N 45°45' W 122°46'2 3.9
2017-Dec-07 20:00N 45°47' W 122°47'2 3.7
2017-Dec-07 19:30N 45°49' W 122°48'2 3.8
2017-Dec-07 19:00N 45°51' W 122°47'1 1.5
2017-Dec-07 18:30N 45°50' W 122°48'2 5.0
2017-Dec-07 18:00N 45°48' W 122°50'1 1.9
2017-Dec-07 17:30N 45°48' W 122°51'0 0.0
2017-Dec-07 17:00N 45°48' W 122°51'0 0.0
2017-Dec-07 16:30N 45°48' W 122°51'0 0.1
2017-Dec-07 16:01N 45°48' W 122°51'0 0.0
2017-Dec-07 15:31N 45°48' W 122°51'0 0.0
2017-Dec-07 15:00N 45°48' W 122°51'0 0.0
2017-Dec-07 14:30N 45°48' W 122°51'0 0.0
2017-Dec-07 14:00N 45°48' W 122°51'0 0.0
2017-Dec-07 13:30N 45°48' W 122°51'0 0.0
2017-Dec-07 13:00N 45°48' W 122°51'0 0.0
2017-Dec-07 12:31N 45°48' W 122°51'0 0.0
2017-Dec-07 12:00N 45°48' W 122°51'0 0.0
2017-Dec-07 11:30N 45°48' W 122°51'0 0.0
2017-Dec-07 11:01N 45°48' W 122°51'0 0.0
2017-Dec-07 10:31N 45°48' W 122°51'0 0.0
2017-Dec-07 10:01N 45°48' W 122°51'0 0.0
2017-Dec-07 09:30N 45°48' W 122°51'0 0.0
2017-Dec-07 09:00N 45°48' W 122°51'0 0.0
2017-Dec-07 08:31N 45°48' W 122°51'0 0.0
2017-Dec-07 08:01N 45°48' W 122°51'0 0.0
2017-Dec-07 07:30N 45°48' W 122°51'0 0.1
2017-Dec-07 07:00N 45°48' W 122°51'2 3.5
2017-Dec-07 06:30N 45°49' W 122°50'3 5.7
2017-Dec-07 06:01N 45°52' W 122°48'4 8.0
2017-Dec-07 05:30N 45°48' W 122°47'4 8.2
2017-Dec-07 05:00N 45°44' W 122°46'4 8.9
2017-Dec-07 04:30N 45°39' W 122°45'1 2.7
2017-Dec-07 04:01N 45°39' W 122°44'0 0.0
2017-Dec-07 03:31N 45°39' W 122°44'0 0.0
2017-Dec-07 02:56N 45°39' W 122°44'0 0.0
2017-Dec-07 02:31N 45°39' W 122°44'0 0.0
2017-Dec-07 02:01N 45°39' W 122°44'0 0.0
2017-Dec-07 01:30N 45°39' W 122°44'0 0.0
2017-Dec-07 01:00N 45°39' W 122°44'0 0.0
2017-Dec-07 00:31N 45°39' W 122°44'0 0.0
2017-Dec-07 00:00N 45°39' W 122°44'0 0.6
2017-Dec-06 23:30N 45°39' W 122°44'2 4.2
2017-Dec-06 23:01N 45°40' W 122°46'2 4.4
2017-Dec-06 22:30N 45°42' W 122°46'2 4.2
2017-Dec-06 22:00N 45°44' W 122°46'2 4.2
2017-Dec-06 21:30N 45°47' W 122°46'2 4.2
2017-Dec-06 21:01N 45°48' W 122°48'  

Dump ship's entire track history